createdAt,value
2022-09-02T00:02:12.550Z,15.90
2022-09-02T00:04:40.730Z,15.90
2022-09-02T00:07:10.161Z,15.90
2022-09-02T00:12:09.665Z,15.80
2022-09-02T00:14:39.752Z,15.80
2022-09-02T00:17:07.944Z,15.70
2022-09-02T00:19:37.785Z,15.70
2022-09-02T00:22:05.792Z,15.70
2022-09-02T00:24:35.158Z,15.70
2022-09-02T00:27:04.011Z,15.60
2022-09-02T00:29:32.030Z,15.60
2022-09-02T00:32:00.327Z,15.60
2022-09-02T00:34:28.540Z,15.60
2022-09-02T00:36:56.708Z,15.50
2022-09-02T00:39:25.813Z,15.50
2022-09-02T00:41:55.485Z,15.50
2022-09-02T00:44:23.726Z,15.50
2022-09-02T00:46:51.848Z,15.40
2022-09-02T00:49:25.186Z,15.30
2022-09-02T00:51:56.413Z,15.30
2022-09-02T00:54:27.454Z,15.30
2022-09-02T00:56:57.346Z,15.20
2022-09-02T00:59:29.480Z,15.20
2022-09-02T01:01:58.318Z,15.10
2022-09-02T01:04:26.423Z,15.00
2022-09-02T01:06:54.471Z,15.00
2022-09-02T01:09:23.238Z,15.00
2022-09-02T01:11:55.429Z,14.90
2022-09-02T01:14:28.594Z,14.90
2022-09-02T01:17:00.925Z,14.80
2022-09-02T01:19:33.777Z,14.80
2022-09-02T01:22:03.256Z,14.70
2022-09-02T01:24:34.727Z,14.70
2022-09-02T01:27:02.737Z,14.60
2022-09-02T01:29:30.858Z,14.60
2022-09-02T01:31:58.923Z,14.50
2022-09-02T01:34:27.107Z,14.50
2022-09-02T01:36:55.092Z,14.50
2022-09-02T01:39:24.424Z,14.50
2022-09-02T01:41:53.136Z,14.40
2022-09-02T01:44:21.195Z,14.40
2022-09-02T01:46:49.252Z,14.40
2022-09-02T01:49:17.339Z,14.30
2022-09-02T01:51:45.370Z,14.30
2022-09-02T01:54:13.433Z,14.20
2022-09-02T01:56:43.092Z,14.20
2022-09-02T01:59:14.765Z,14.10
2022-09-02T02:01:42.858Z,14.00
2022-09-02T02:04:13.550Z,14.00
2022-09-02T02:06:43.214Z,14.00
2022-09-02T02:09:12.398Z,14.00
2022-09-02T02:11:41.912Z,14.00
2022-09-02T02:14:10.322Z,13.90
2022-09-02T02:16:38.448Z,13.90
2022-09-02T02:19:07.056Z,13.90
2022-09-02T02:21:35.231Z,13.90
2022-09-02T02:24:03.598Z,13.80
2022-09-02T02:26:32.212Z,13.80
2022-09-02T02:29:01.938Z,13.80
2022-09-02T02:31:30.098Z,13.70
2022-09-02T02:33:58.275Z,13.70
2022-09-02T02:36:26.592Z,13.60
2022-09-02T02:38:54.964Z,13.60
2022-09-02T02:41:23.414Z,13.60
2022-09-02T02:43:51.381Z,13.60
2022-09-02T02:46:20.831Z,13.60
2022-09-02T02:48:48.878Z,13.50
2022-09-02T02:51:16.985Z,13.50
2022-09-02T02:53:44.944Z,13.50
2022-09-02T02:56:12.933Z,13.50
2022-09-02T02:58:41.011Z,13.10
2022-09-02T03:01:09.054Z,13.40
2022-09-02T03:03:38.394Z,13.40
2022-09-02T03:06:06.819Z,13.40
2022-09-02T03:08:36.865Z,13.40
2022-09-02T03:11:08.212Z,13.40
2022-09-02T03:13:36.505Z,13.40
2022-09-02T03:16:06.091Z,13.40
2022-09-02T03:18:34.220Z,13.40
2022-09-02T03:21:08.463Z,13.40
2022-09-02T03:23:36.850Z,13.40
2022-09-02T03:26:11.065Z,13.40
2022-09-02T03:28:39.173Z,13.40
2022-09-02T03:31:07.948Z,13.30
2022-09-02T03:33:35.965Z,13.30
2022-09-02T03:36:05.534Z,13.30
2022-09-02T03:38:33.604Z,13.20
2022-09-02T03:41:01.616Z,13.20
2022-09-02T03:43:29.617Z,13.20
2022-09-02T03:45:57.690Z,13.20
2022-09-02T03:48:25.703Z,13.10
2022-09-02T03:50:53.751Z,13.10
2022-09-02T03:53:23.282Z,13.10
2022-09-02T03:55:51.503Z,13.00
2022-09-02T03:58:19.780Z,13.00
2022-09-02T04:00:52.498Z,13.00
2022-09-02T04:03:21.497Z,13.00
2022-09-02T04:05:50.729Z,12.90
2022-09-02T04:08:19.538Z,12.90
2022-09-02T04:10:50.517Z,12.80
2022-09-02T04:13:18.949Z,12.60
2022-09-02T04:15:51.846Z,12.80
2022-09-02T04:18:20.272Z,12.80
2022-09-02T04:25:48.513Z,12.60
2022-09-02T04:30:45.101Z,12.60
2022-09-02T04:35:42.643Z,12.50
2022-09-02T04:38:11.062Z,12.50
2022-09-02T04:40:41.781Z,12.50
2022-09-02T04:43:11.738Z,12.50
2022-09-02T04:45:41.926Z,12.50
2022-09-02T04:48:09.973Z,12.60
2022-09-02T04:50:39.693Z,12.50
2022-09-02T04:53:08.312Z,12.50
2022-09-02T04:55:36.650Z,12.50
2022-09-02T04:58:04.838Z,12.60
2022-09-02T05:00:34.286Z,12.60
2022-09-02T05:03:02.421Z,12.60
2022-09-02T05:05:35.002Z,12.40
2022-09-02T05:08:04.612Z,12.60
2022-09-02T05:10:33.066Z,12.60
2022-09-02T05:13:01.707Z,12.70
2022-09-02T05:15:30.782Z,12.70
2022-09-02T05:18:00.456Z,12.70
2022-09-02T05:20:29.940Z,12.70
2022-09-02T05:22:58.510Z,12.70
2022-09-02T05:25:27.493Z,12.70
2022-09-02T05:27:55.604Z,12.80
2022-09-02T05:35:22.319Z,13.00
2022-09-02T05:37:50.558Z,13.10
2022-09-02T05:40:22.526Z,13.20
2022-09-02T05:42:50.830Z,13.20
2022-09-02T05:50:16.559Z,13.50
2022-09-02T05:52:51.929Z,13.40
2022-09-02T05:55:20.151Z,13.40
2022-09-02T05:57:50.350Z,13.50
2022-09-02T06:00:18.726Z,13.60
2022-09-02T06:02:48.634Z,13.60
2022-09-02T06:05:19.104Z,13.70
2022-09-02T06:07:48.647Z,13.90
2022-09-02T06:10:16.891Z,14.10
2022-09-02T06:12:45.034Z,14.10
2022-09-02T06:15:14.989Z,14.20
2022-09-02T06:17:43.115Z,14.40
2022-09-02T06:20:12.039Z,14.50
2022-09-02T06:22:40.283Z,14.60
2022-09-02T06:25:10.176Z,14.70
2022-09-02T06:27:40.135Z,14.70
2022-09-02T06:30:09.648Z,15.00
2022-09-02T06:32:37.716Z,14.90
2022-09-02T06:35:08.163Z,15.10
2022-09-02T06:37:36.138Z,15.20
2022-09-02T06:40:05.621Z,15.30
2022-09-02T06:42:35.366Z,15.50
2022-09-02T06:45:03.705Z,15.50
2022-09-02T06:47:31.755Z,15.70
2022-09-02T06:50:00.033Z,15.80
2022-09-02T06:52:28.315Z,15.90
2022-09-02T06:54:56.320Z,16.00
2022-09-02T06:57:33.848Z,16.10
2022-09-02T07:00:04.740Z,16.30
2022-09-02T07:02:32.914Z,16.40
2022-09-02T07:05:15.271Z,16.50
2022-09-02T07:07:48.041Z,16.60
2022-09-02T07:10:16.558Z,16.80
2022-09-02T07:12:44.967Z,16.80
2022-09-02T07:15:14.768Z,16.90
2022-09-02T07:17:42.820Z,17.00
2022-09-02T07:20:11.370Z,17.60
2022-09-02T07:22:39.983Z,17.20
2022-09-02T07:25:09.696Z,17.30
2022-09-02T07:27:38.247Z,17.40
2022-09-02T07:30:07.757Z,17.50
2022-09-02T07:32:37.442Z,17.70
2022-09-02T07:35:07.261Z,17.80
2022-09-02T07:37:35.686Z,18.10
2022-09-02T07:40:05.102Z,18.00
2022-09-02T07:42:33.216Z,18.20
2022-09-02T07:45:01.415Z,18.20
2022-09-02T07:47:29.356Z,18.40
2022-09-02T07:52:46.992Z,18.60
2022-09-02T07:55:15.356Z,18.80
2022-09-02T07:57:43.422Z,18.80
2022-09-02T08:00:13.864Z,19.10
2022-09-02T08:02:42.242Z,19.10
2022-09-02T08:05:12.773Z,19.20
2022-09-02T08:07:40.861Z,19.20
2022-09-02T08:10:12.879Z,19.40
2022-09-02T08:12:41.792Z,19.30
2022-09-02T08:15:12.168Z,19.50
2022-09-02T08:17:41.941Z,19.60
2022-09-02T08:20:14.195Z,20.00
2022-09-02T08:22:42.554Z,19.90
2022-09-02T08:25:11.569Z,20.10
2022-09-02T08:27:41.895Z,20.20
2022-09-02T08:30:11.024Z,20.30
2022-09-02T08:32:40.116Z,20.20
2022-09-02T08:35:09.935Z,20.30
2022-09-02T08:37:39.801Z,20.40
2022-09-02T08:40:13.642Z,20.50
2022-09-02T08:42:49.679Z,20.60
2022-09-02T08:45:23.926Z,20.60
2022-09-02T08:47:59.821Z,20.70
2022-09-02T08:50:28.469Z,20.80
2022-09-02T08:53:06.461Z,20.80
2022-09-02T08:55:40.723Z,20.90
2022-09-02T08:58:08.646Z,21.00
2022-09-02T09:00:43.000Z,21.00
2022-09-02T09:03:20.788Z,21.00
2022-09-02T09:05:58.639Z,21.20
2022-09-02T09:08:34.743Z,21.30
2022-09-02T09:11:05.976Z,21.40
2022-09-02T09:14:10.450Z,21.40
2022-09-02T09:16:46.487Z,21.50
2022-09-02T09:19:16.445Z,21.60
2022-09-02T09:21:45.397Z,21.70
2022-09-02T09:24:27.690Z,21.80
2022-09-02T09:26:56.231Z,21.70
2022-09-02T09:29:24.194Z,21.80
2022-09-02T09:31:57.968Z,21.80
2022-09-02T09:34:25.988Z,21.80
2022-09-02T09:36:56.044Z,21.90
2022-09-02T09:39:28.134Z,22.00
2022-09-02T09:41:57.451Z,22.20
2022-09-02T09:44:38.435Z,22.30
2022-09-02T09:47:09.386Z,22.30
2022-09-02T09:49:37.865Z,22.40
2022-09-02T09:52:06.192Z,22.60
2022-09-02T09:54:35.529Z,22.70
2022-09-02T09:57:21.420Z,22.70
2022-09-02T09:59:55.925Z,22.90
2022-09-02T10:02:25.550Z,23.00
2022-09-02T10:04:54.481Z,22.90
2022-09-02T10:07:37.342Z,23.00
2022-09-02T10:10:18.092Z,23.30
2022-09-02T10:12:48.248Z,23.30
2022-09-02T10:15:17.880Z,23.30
2022-09-02T10:18:01.943Z,23.50
2022-09-02T10:20:48.624Z,23.50
2022-09-02T10:23:37.491Z,23.60
2022-09-02T10:26:17.213Z,23.70
2022-09-02T10:29:09.005Z,23.90
2022-09-02T10:31:47.065Z,24.00
2022-09-02T10:34:21.777Z,24.00
2022-09-02T10:37:11.669Z,24.10
2022-09-02T10:39:58.738Z,24.10
2022-09-02T10:42:36.524Z,24.00
2022-09-02T10:45:13.869Z,23.90
2022-09-02T10:47:42.037Z,24.00
2022-09-02T10:50:23.697Z,24.20
2022-09-02T10:53:12.992Z,24.10
2022-09-02T10:55:52.336Z,24.40
2022-09-02T10:58:28.343Z,24.40
2022-09-02T11:00:58.290Z,24.40
2022-09-02T11:03:31.632Z,24.20
2022-09-02T11:06:06.705Z,24.30
2022-09-02T11:08:40.588Z,24.50
2022-09-02T11:11:13.366Z,24.60
2022-09-02T11:13:48.483Z,24.40
2022-09-02T11:16:20.784Z,24.40
2022-09-02T11:18:58.004Z,24.60
2022-09-02T11:21:35.411Z,24.80
2022-09-02T11:24:09.940Z,24.90
2022-09-02T11:26:42.344Z,25.10
2022-09-02T11:29:17.689Z,25.00
2022-09-02T11:31:50.430Z,25.20
2022-09-02T11:34:21.235Z,25.20
2022-09-02T11:36:50.573Z,25.40
2022-09-02T11:39:51.565Z,25.30
2022-09-02T11:42:33.372Z,25.40
2022-09-02T11:45:33.594Z,25.50
2022-09-02T11:48:30.191Z,25.40
2022-09-02T11:51:38.681Z,25.50
2022-09-02T11:54:10.312Z,25.60
2022-09-02T11:56:46.350Z,25.80
2022-09-02T11:59:22.246Z,25.60
2022-09-02T12:01:54.298Z,25.80
2022-09-02T12:04:58.708Z,25.90
2022-09-02T12:07:29.609Z,25.90
2022-09-02T12:09:57.785Z,25.90
2022-09-02T12:13:08.116Z,26.10
2022-09-02T12:15:38.378Z,26.10
2022-09-02T12:18:32.102Z,26.30
2022-09-02T12:21:16.304Z,26.20
2022-09-02T12:24:10.200Z,26.20
2022-09-02T12:27:19.998Z,26.20
2022-09-02T12:29:47.977Z,26.20
2022-09-02T12:33:02.482Z,26.10
2022-09-02T12:35:37.214Z,26.30
2022-09-02T12:38:27.088Z,26.40
2022-09-02T12:41:01.683Z,26.60
2022-09-02T12:43:35.566Z,26.60
2022-09-02T12:46:12.930Z,26.70
2022-09-02T12:48:45.294Z,26.60
2022-09-02T12:51:54.940Z,26.70
2022-09-02T12:54:28.829Z,26.70
2022-09-02T12:56:56.858Z,26.90
2022-09-02T12:59:30.004Z,27.00
2022-09-02T13:02:16.939Z,27.20
2022-09-02T13:04:52.228Z,27.20
2022-09-02T13:08:03.119Z,27.20
2022-09-02T13:10:56.109Z,27.30
2022-09-02T13:13:57.617Z,27.30
2022-09-02T13:16:39.457Z,27.40
2022-09-02T13:19:42.196Z,27.20
2022-09-02T13:22:45.997Z,27.40
2022-09-02T13:25:59.285Z,27.30
2022-09-02T13:28:53.459Z,27.40
2022-09-02T13:31:22.429Z,27.50
2022-09-02T13:34:00.214Z,27.70
2022-09-02T13:36:32.761Z,27.90
2022-09-02T13:39:16.819Z,27.80
2022-09-02T13:41:45.566Z,28.10
2022-09-02T13:44:20.998Z,27.90
2022-09-02T13:46:51.740Z,28.10
2022-09-02T13:49:22.743Z,28.10
2022-09-02T13:51:53.906Z,28.40
2022-09-02T13:54:33.263Z,28.70
2022-09-02T13:57:05.114Z,28.80
2022-09-02T13:59:39.102Z,28.70
2022-09-02T14:02:29.451Z,29.10
2022-09-02T14:05:00.632Z,29.20
2022-09-02T14:07:36.203Z,29.40
2022-09-02T14:10:10.364Z,29.50
2022-09-02T14:12:40.311Z,30.10
2022-09-02T14:15:11.515Z,30.60
2022-09-02T14:17:39.694Z,30.80
2022-09-02T14:20:18.684Z,31.40
2022-09-02T14:22:55.757Z,31.80
2022-09-02T14:25:31.182Z,31.80
2022-09-02T14:28:02.078Z,31.90
2022-09-02T14:30:35.680Z,31.80
2022-09-02T14:33:26.808Z,31.90
2022-09-02T14:36:01.417Z,32.00
2022-09-02T14:38:34.115Z,31.10
2022-09-02T14:41:08.436Z,31.10
2022-09-02T14:43:45.196Z,31.10
2022-09-02T14:46:25.114Z,31.50
2022-09-02T14:49:04.084Z,31.80
2022-09-02T14:51:39.206Z,32.10
2022-09-02T14:54:08.915Z,31.20
2022-09-02T14:56:50.646Z,31.70
2022-09-02T14:59:20.359Z,31.20
2022-09-02T15:01:52.020Z,30.80
2022-09-02T15:04:20.613Z,31.00
2022-09-02T15:06:49.855Z,31.50
2022-09-02T15:09:17.840Z,31.90
2022-09-02T15:11:50.170Z,31.80
2022-09-02T15:14:18.344Z,31.90
2022-09-02T15:16:46.667Z,32.10
2022-09-02T15:19:16.087Z,32.30
2022-09-02T15:21:44.262Z,32.60
2022-09-02T15:24:12.380Z,32.40
2022-09-02T15:26:41.664Z,32.00
2022-09-02T15:29:11.184Z,32.00
2022-09-02T15:31:39.234Z,31.40
2022-09-02T15:34:07.360Z,31.50
2022-09-02T15:36:36.415Z,31.50
2022-09-02T15:39:04.785Z,32.00
2022-09-02T15:41:32.918Z,31.20
2022-09-02T15:44:01.343Z,31.70
2022-09-02T15:46:33.860Z,31.60
2022-09-02T15:49:04.079Z,31.40
2022-09-02T15:51:32.786Z,31.10
2022-09-02T15:54:02.979Z,30.90
2022-09-02T15:56:34.785Z,31.30
2022-09-02T15:59:05.221Z,31.10
2022-09-02T16:01:35.459Z,31.10
2022-09-02T16:04:04.486Z,31.40
2022-09-02T16:06:34.769Z,31.70
2022-09-02T16:09:03.547Z,31.40
2022-09-02T16:11:31.467Z,31.10
2022-09-02T16:13:59.540Z,30.90
2022-09-02T16:16:27.807Z,30.60
2022-09-02T16:18:57.725Z,30.80
2022-09-02T16:21:26.651Z,31.10
2022-09-02T16:23:54.773Z,30.40
2022-09-02T16:26:27.831Z,29.50
2022-09-02T16:28:57.481Z,28.90
2022-09-02T16:31:27.741Z,28.10
2022-09-02T16:33:58.817Z,27.70
2022-09-02T16:36:32.991Z,27.40
2022-09-02T16:39:02.087Z,27.00
2022-09-02T16:41:34.413Z,26.80
2022-09-02T16:44:05.536Z,26.60
2022-09-02T16:46:35.004Z,26.40
2022-09-02T16:49:04.717Z,26.20
2022-09-02T16:51:33.404Z,26.10
2022-09-02T16:54:05.691Z,25.80
2022-09-02T16:56:34.648Z,25.70
2022-09-02T16:59:05.940Z,25.70
2022-09-02T17:01:36.003Z,25.50
2022-09-02T17:04:08.552Z,25.40
2022-09-02T17:06:41.984Z,25.30
2022-09-02T17:09:10.473Z,25.30
2022-09-02T17:11:41.203Z,25.20
2022-09-02T17:14:11.095Z,25.10
2022-09-02T17:16:41.241Z,25.00
2022-09-02T17:19:11.321Z,24.90
2022-09-02T17:21:42.375Z,24.90
2022-09-02T17:24:12.891Z,24.70
2022-09-02T17:26:43.605Z,24.70
2022-09-02T17:29:31.599Z,24.60
2022-09-02T17:32:01.533Z,24.60
2022-09-02T17:34:33.493Z,24.50
2022-09-02T17:37:01.507Z,24.50
2022-09-02T17:39:30.675Z,24.40
2022-09-02T17:41:57.891Z,24.30
2022-09-02T17:44:28.107Z,24.20
2022-09-02T17:46:59.158Z,24.10
2022-09-02T17:49:29.370Z,24.10
2022-09-02T17:52:01.874Z,24.00
2022-09-02T17:54:30.592Z,23.90
2022-09-02T17:57:09.600Z,23.80
2022-09-02T18:00:03.357Z,23.80
2022-09-02T18:03:06.447Z,23.60
2022-09-02T18:06:02.234Z,23.50
2022-09-02T18:08:39.863Z,23.40
2022-09-02T18:11:09.532Z,23.20
2022-09-02T18:13:47.642Z,23.10
2022-09-02T18:16:30.022Z,23.10
2022-09-02T18:19:13.789Z,23.00
2022-09-02T18:22:06.541Z,22.90
2022-09-02T18:25:08.385Z,22.80
2022-09-02T18:27:50.732Z,22.70
2022-09-02T18:30:24.288Z,22.60
2022-09-02T18:33:10.207Z,22.50
2022-09-02T18:35:50.693Z,22.40
2022-09-02T18:38:28.691Z,22.30
2022-09-02T18:41:19.719Z,22.10
2022-09-02T18:44:08.862Z,22.10
2022-09-02T18:46:47.119Z,21.90
2022-09-02T18:49:16.189Z,21.70
2022-09-02T18:51:45.836Z,21.70
2022-09-02T18:54:19.033Z,21.60
2022-09-02T18:56:54.220Z,21.50
2022-09-02T18:59:28.757Z,21.40
2022-09-02T19:01:59.682Z,21.30
2022-09-02T19:04:29.570Z,21.20
2022-09-02T19:07:18.752Z,21.20
2022-09-02T19:09:46.839Z,21.20
2022-09-02T19:12:16.425Z,21.10
2022-09-02T19:14:44.477Z,21.10
2022-09-02T19:17:12.717Z,21.00
2022-09-02T19:19:40.675Z,21.00
2022-09-02T19:22:10.707Z,20.90
2022-09-02T19:24:42.963Z,20.90
2022-09-02T19:27:16.499Z,20.80
2022-09-02T19:29:47.895Z,20.70
2022-09-02T19:32:16.555Z,20.70
2022-09-02T19:34:46.386Z,20.60
2022-09-02T19:37:22.382Z,20.50
2022-09-02T19:39:51.354Z,20.50
2022-09-02T19:42:24.208Z,20.40
2022-09-02T19:44:52.195Z,20.30
2022-09-02T19:48:05.057Z,20.30
2022-09-02T19:50:09.331Z,20.30
2022-09-02T19:52:45.142Z,20.30
2022-09-02T19:55:16.028Z,20.30
2022-09-02T19:57:45.971Z,20.40
2022-09-02T20:00:15.896Z,20.30
2022-09-02T20:02:44.255Z,20.30
2022-09-02T20:05:13.896Z,20.20
2022-09-02T20:07:42.469Z,20.30
2022-09-02T20:10:12.004Z,20.30
2022-09-02T20:12:40.316Z,20.20
2022-09-02T20:15:10.464Z,20.20
2022-09-02T20:17:38.504Z,20.10
2022-09-02T20:20:13.278Z,20.10
2022-09-02T20:22:41.364Z,20.10
2022-09-02T20:25:09.751Z,20.00
2022-09-02T20:27:51.503Z,20.00
2022-09-02T20:30:21.319Z,19.90
2022-09-02T20:32:54.912Z,19.80
2022-09-02T20:35:57.287Z,19.80
2022-09-02T20:38:57.857Z,19.90
2022-09-02T20:41:35.025Z,19.90
2022-09-02T20:44:27.893Z,19.90
2022-09-02T20:47:13.740Z,19.90
2022-09-02T20:49:58.146Z,19.90
2022-09-02T20:52:34.978Z,19.80
2022-09-02T20:55:09.658Z,19.70
2022-09-02T20:58:13.798Z,19.70
2022-09-02T21:01:03.386Z,19.70
2022-09-02T21:03:45.206Z,19.60
2022-09-02T21:06:14.477Z,19.60
2022-09-02T21:08:58.235Z,19.60
2022-09-02T21:11:34.717Z,19.60
2022-09-02T21:14:10.209Z,19.60
2022-09-02T21:16:44.210Z,19.50
2022-09-02T21:19:18.930Z,19.60
2022-09-02T21:21:55.173Z,19.50
2022-09-02T21:24:28.561Z,19.50
2022-09-02T21:27:02.952Z,19.50
2022-09-02T21:29:36.984Z,19.40
2022-09-02T21:32:10.033Z,19.40
2022-09-02T21:34:41.337Z,19.40
2022-09-02T21:37:12.831Z,19.40
2022-09-02T21:39:46.381Z,19.30
2022-09-02T21:42:23.641Z,19.50
2022-09-02T21:45:04.061Z,19.30
2022-09-02T21:47:38.502Z,19.40
2022-09-02T21:50:22.068Z,19.40
2022-09-02T21:53:04.697Z,19.40
2022-09-02T21:55:44.695Z,19.40
2022-09-02T21:58:31.312Z,19.40
2022-09-02T22:01:06.330Z,19.40
2022-09-02T22:03:41.641Z,19.30
2022-09-02T22:06:22.243Z,19.30
2022-09-02T22:08:58.512Z,19.30
2022-09-02T22:11:32.580Z,19.30
2022-09-02T22:14:09.999Z,19.30
2022-09-02T22:16:46.584Z,19.20
2022-09-02T22:19:16.121Z,19.30
2022-09-02T22:21:50.198Z,19.30
2022-09-02T22:24:20.289Z,19.20
2022-09-02T22:26:52.971Z,19.20
2022-09-02T22:29:27.111Z,19.10
2022-09-02T22:32:00.782Z,19.10
2022-09-02T22:34:31.353Z,19.10
2022-09-02T22:37:06.828Z,19.10
2022-09-02T22:39:42.709Z,19.00
2022-09-02T22:42:21.437Z,19.00
2022-09-02T22:45:12.611Z,19.00
2022-09-02T22:48:04.437Z,18.90
2022-09-02T22:50:56.210Z,18.80
2022-09-02T22:53:25.908Z,18.70
2022-09-02T22:56:02.312Z,18.70
2022-09-02T22:59:05.951Z,18.60
2022-09-02T23:01:47.032Z,18.50
2022-09-02T23:04:30.584Z,18.40
2022-09-02T23:07:07.276Z,18.40
2022-09-02T23:09:38.775Z,18.30
2022-09-02T23:12:18.722Z,18.30
2022-09-02T23:14:58.726Z,18.30
2022-09-02T23:17:36.030Z,18.30
2022-09-02T23:20:19.547Z,18.40
2022-09-02T23:23:11.047Z,18.40
2022-09-02T23:26:12.022Z,18.40
2022-09-02T23:28:58.895Z,18.50
2022-09-02T23:31:50.929Z,18.50
2022-09-02T23:34:30.807Z,18.50
2022-09-02T23:37:09.688Z,18.60
2022-09-02T23:39:51.736Z,18.60
2022-09-02T23:42:20.793Z,18.70
2022-09-02T23:44:51.123Z,18.70
2022-09-02T23:47:37.736Z,18.80
2022-09-02T23:50:18.889Z,18.80
2022-09-02T23:52:56.622Z,18.90
2022-09-02T23:55:39.405Z,19.00
2022-09-02T23:58:22.946Z,19.10
